sensor_id;sensor_type;location;lat;lon;timestamp;P1;durP1;ratioP1;P2;durP2;ratioP2
22468;SDS011;11401;50.792;4.352;2023-11-22T00:01:06;12.73;;;10.70;;
22468;SDS011;11401;50.792;4.352;2023-11-22T00:03:33;12.98;;;11.18;;
22468;SDS011;11401;50.792;4.352;2023-11-22T00:06:00;13.57;;;11.73;;
22468;SDS011;11401;50.792;4.352;2023-11-22T00:08:28;14.00;;;11.20;;
22468;SDS011;11401;50.792;4.352;2023-11-22T00:10:55;13.38;;;10.55;;
22468;SDS011;11401;50.792;4.352;2023-11-22T00:13:23;11.00;;;9.88;;
22468;SDS011;11401;50.792;4.352;2023-11-22T00:15:50;14.90;;;11.90;;
22468;SDS011;11401;50.792;4.352;2023-11-22T00:18:17;13.25;;;10.38;;
22468;SDS011;11401;50.792;4.352;2023-11-22T00:20:45;12.15;;;9.95;;
22468;SDS011;11401;50.792;4.352;2023-11-22T00:23:15;12.98;;;10.52;;
22468;SDS011;11401;50.792;4.352;2023-11-22T00:25:42;11.80;;;10.60;;
22468;SDS011;11401;50.792;4.352;2023-11-22T00:28:09;12.38;;;10.32;;
22468;SDS011;11401;50.792;4.352;2023-11-22T00:30:38;13.63;;;11.18;;
22468;SDS011;11401;50.792;4.352;2023-11-22T00:33:05;13.77;;;11.52;;
22468;SDS011;11401;50.792;4.352;2023-11-22T00:35:32;12.02;;;10.73;;
22468;SDS011;11401;50.792;4.352;2023-11-22T00:38:00;12.57;;;11.27;;
22468;SDS011;11401;50.792;4.352;2023-11-22T00:40:27;16.00;;;12.02;;
22468;SDS011;11401;50.792;4.352;2023-11-22T00:42:54;11.63;;;10.40;;
22468;SDS011;11401;50.792;4.352;2023-11-22T00:45:21;13.48;;;10.82;;
22468;SDS011;11401;50.792;4.352;2023-11-22T00:47:48;13.02;;;10.82;;
22468;SDS011;11401;50.792;4.352;2023-11-22T00:50:16;13.38;;;10.45;;
22468;SDS011;11401;50.792;4.352;2023-11-22T00:52:47;12.10;;;10.45;;
22468;SDS011;11401;50.792;4.352;2023-11-22T00:55:14;12.07;;;10.85;;
22468;SDS011;11401;50.792;4.352;2023-11-22T00:57:42;15.63;;;11.43;;
22468;SDS011;11401;50.792;4.352;2023-11-22T01:00:10;13.80;;;10.90;;
22468;SDS011;11401;50.792;4.352;2023-11-22T01:02:38;13.65;;;11.45;;
22468;SDS011;11401;50.792;4.352;2023-11-22T01:05:07;14.18;;;10.77;;
22468;SDS011;11401;50.792;4.352;2023-11-22T01:07:42;12.02;;;10.70;;
22468;SDS011;11401;50.792;4.352;2023-11-22T01:10:09;17.65;;;11.45;;
22468;SDS011;11401;50.792;4.352;2023-11-22T01:12:36;14.77;;;10.88;;
22468;SDS011;11401;50.792;4.352;2023-11-22T01:15:03;12.95;;;10.88;;
22468;SDS011;11401;50.792;4.352;2023-11-22T01:17:32;12.82;;;11.18;;
22468;SDS011;11401;50.792;4.352;2023-11-22T01:20:01;14.02;;;11.10;;
22468;SDS011;11401;50.792;4.352;2023-11-22T01:22:29;15.50;;;12.20;;
22468;SDS011;11401;50.792;4.352;2023-11-22T01:24:58;11.48;;;10.23;;
22468;SDS011;11401;50.792;4.352;2023-11-22T01:27:25;13.77;;;11.43;;
22468;SDS011;11401;50.792;4.352;2023-11-22T01:29:52;13.63;;;11.93;;
22468;SDS011;11401;50.792;4.352;2023-11-22T01:32:20;12.68;;;10.88;;
22468;SDS011;11401;50.792;4.352;2023-11-22T01:34:48;14.07;;;11.93;;
22468;SDS011;11401;50.792;4.352;2023-11-22T01:37:15;13.95;;;10.98;;
22468;SDS011;11401;50.792;4.352;2023-11-22T01:39:42;14.00;;;12.20;;
22468;SDS011;11401;50.792;4.352;2023-11-22T01:42:09;13.82;;;11.25;;
22468;SDS011;11401;50.792;4.352;2023-11-22T01:44:36;16.02;;;12.70;;
22468;SDS011;11401;50.792;4.352;2023-11-22T01:47:04;14.02;;;10.98;;
22468;SDS011;11401;50.792;4.352;2023-11-22T01:49:31;13.02;;;10.50;;
22468;SDS011;11401;50.792;4.352;2023-11-22T01:51:59;14.40;;;11.85;;
22468;SDS011;11401;50.792;4.352;2023-11-22T01:54:28;14.65;;;11.45;;
22468;SDS011;11401;50.792;4.352;2023-11-22T01:56:55;14.75;;;11.43;;
22468;SDS011;11401;50.792;4.352;2023-11-22T01:59:22;13.13;;;10.35;;
22468;SDS011;11401;50.792;4.352;2023-11-22T02:01:55;12.00;;;10.50;;
22468;SDS011;11401;50.792;4.352;2023-11-22T02:04:23;13.32;;;11.00;;
22468;SDS011;11401;50.792;4.352;2023-11-22T02:06:50;13.80;;;11.40;;
22468;SDS011;11401;50.792;4.352;2023-11-22T02:09:19;12.82;;;10.73;;
22468;SDS011;11401;50.792;4.352;2023-11-22T02:11:46;13.13;;;11.00;;
22468;SDS011;11401;50.792;4.352;2023-11-22T02:14:15;13.90;;;12.10;;
22468;SDS011;11401;50.792;4.352;2023-11-22T02:16:43;15.23;;;11.85;;
22468;SDS011;11401;50.792;4.352;2023-11-22T02:19:18;14.25;;;12.60;;
22468;SDS011;11401;50.792;4.352;2023-11-22T02:21:46;11.80;;;10.02;;
22468;SDS011;11401;50.792;4.352;2023-11-22T02:24:13;13.95;;;11.75;;
22468;SDS011;11401;50.792;4.352;2023-11-22T02:26:44;16.58;;;10.88;;
22468;SDS011;11401;50.792;4.352;2023-11-22T02:29:13;16.42;;;11.02;;
22468;SDS011;11401;50.792;4.352;2023-11-22T02:31:42;13.75;;;10.85;;
22468;SDS011;11401;50.792;4.352;2023-11-22T02:34:12;13.35;;;10.65;;
22468;SDS011;11401;50.792;4.352;2023-11-22T02:36:39;12.80;;;11.15;;
22468;SDS011;11401;50.792;4.352;2023-11-22T02:39:14;15.73;;;11.63;;
22468;SDS011;11401;50.792;4.352;2023-11-22T02:41:41;14.65;;;10.95;;
22468;SDS011;11401;50.792;4.352;2023-11-22T02:44:08;16.13;;;12.82;;
22468;SDS011;11401;50.792;4.352;2023-11-22T02:46:35;15.05;;;12.32;;
22468;SDS011;11401;50.792;4.352;2023-11-22T02:49:02;13.65;;;11.38;;
22468;SDS011;11401;50.792;4.352;2023-11-22T02:51:30;16.58;;;11.93;;
22468;SDS011;11401;50.792;4.352;2023-11-22T02:53:57;17.23;;;12.20;;
22468;SDS011;11401;50.792;4.352;2023-11-22T02:56:24;14.15;;;11.75;;
22468;SDS011;11401;50.792;4.352;2023-11-22T02:58:52;14.70;;;11.75;;
22468;SDS011;11401;50.792;4.352;2023-11-22T03:01:19;14.98;;;12.35;;
22468;SDS011;11401;50.792;4.352;2023-11-22T03:03:46;12.75;;;10.63;;
22468;SDS011;11401;50.792;4.352;2023-11-22T03:06:13;13.85;;;11.13;;
22468;SDS011;11401;50.792;4.352;2023-11-22T03:08:41;14.73;;;12.05;;
22468;SDS011;11401;50.792;4.352;2023-11-22T03:11:08;14.60;;;11.75;;
22468;SDS011;11401;50.792;4.352;2023-11-22T03:13:35;14.88;;;11.88;;
22468;SDS011;11401;50.792;4.352;2023-11-22T03:16:03;16.33;;;11.30;;
22468;SDS011;11401;50.792;4.352;2023-11-22T03:18:30;15.23;;;11.13;;
22468;SDS011;11401;50.792;4.352;2023-11-22T03:20:59;13.30;;;11.60;;
22468;SDS011;11401;50.792;4.352;2023-11-22T03:23:27;15.35;;;12.15;;
22468;SDS011;11401;50.792;4.352;2023-11-22T03:25:54;14.93;;;11.60;;
22468;SDS011;11401;50.792;4.352;2023-11-22T03:28:21;14.80;;;11.75;;
22468;SDS011;11401;50.792;4.352;2023-11-22T03:30:48;16.40;;;10.55;;
22468;SDS011;11401;50.792;4.352;2023-11-22T03:33:16;14.98;;;12.00;;
22468;SDS011;11401;50.792;4.352;2023-11-22T03:35:43;12.35;;;10.85;;
22468;SDS011;11401;50.792;4.352;2023-11-22T03:38:10;12.15;;;10.85;;
22468;SDS011;11401;50.792;4.352;2023-11-22T03:40:37;16.27;;;11.50;;
22468;SDS011;11401;50.792;4.352;2023-11-22T03:43:04;13.43;;;10.90;;
22468;SDS011;11401;50.792;4.352;2023-11-22T03:45:32;13.63;;;11.20;;
22468;SDS011;11401;50.792;4.352;2023-11-22T03:47:59;15.27;;;12.32;;
22468;SDS011;11401;50.792;4.352;2023-11-22T03:50:27;12.77;;;10.65;;
22468;SDS011;11401;50.792;4.352;2023-11-22T03:52:54;17.30;;;12.23;;
22468;SDS011;11401;50.792;4.352;2023-11-22T03:55:21;15.35;;;11.27;;
22468;SDS011;11401;50.792;4.352;2023-11-22T03:57:49;13.20;;;11.10;;
22468;SDS011;11401;50.792;4.352;2023-11-22T04:00:16;13.57;;;10.93;;
22468;SDS011;11401;50.792;4.352;2023-11-22T04:02:45;14.18;;;11.02;;
22468;SDS011;11401;50.792;4.352;2023-11-22T04:05:13;14.70;;;11.88;;
22468;SDS011;11401;50.792;4.352;2023-11-22T04:07:40;13.90;;;11.27;;
22468;SDS011;11401;50.792;4.352;2023-11-22T04:10:08;13.23;;;10.82;;
22468;SDS011;11401;50.792;4.352;2023-11-22T04:12:35;14.85;;;11.07;;
22468;SDS011;11401;50.792;4.352;2023-11-22T04:15:02;14.85;;;11.60;;
22468;SDS011;11401;50.792;4.352;2023-11-22T04:17:31;13.85;;;10.10;;
22468;SDS011;11401;50.792;4.352;2023-11-22T04:19:59;12.40;;;10.52;;
22468;SDS011;11401;50.792;4.352;2023-11-22T04:22:26;15.25;;;10.90;;
22468;SDS011;11401;50.792;4.352;2023-11-22T04:24:53;14.75;;;10.82;;
22468;SDS011;11401;50.792;4.352;2023-11-22T04:27:20;13.35;;;11.18;;
22468;SDS011;11401;50.792;4.352;2023-11-22T04:29:47;11.68;;;10.13;;
22468;SDS011;11401;50.792;4.352;2023-11-22T04:32:14;12.82;;;10.95;;
22468;SDS011;11401;50.792;4.352;2023-11-22T04:34:41;12.50;;;10.85;;
22468;SDS011;11401;50.792;4.352;2023-11-22T04:37:08;14.00;;;11.68;;
22468;SDS011;11401;50.792;4.352;2023-11-22T04:39:35;15.43;;;11.32;;
22468;SDS011;11401;50.792;4.352;2023-11-22T04:42:02;11.55;;;10.25;;
22468;SDS011;11401;50.792;4.352;2023-11-22T04:44:30;12.85;;;10.55;;
22468;SDS011;11401;50.792;4.352;2023-11-22T04:46:58;13.63;;;10.93;;
22468;SDS011;11401;50.792;4.352;2023-11-22T04:49:26;13.18;;;11.05;;
22468;SDS011;11401;50.792;4.352;2023-11-22T04:51:53;12.77;;;11.05;;
22468;SDS011;11401;50.792;4.352;2023-11-22T04:54:21;11.88;;;10.65;;
22468;SDS011;11401;50.792;4.352;2023-11-22T04:56:48;11.85;;;10.38;;
22468;SDS011;11401;50.792;4.352;2023-11-22T04:59:15;14.43;;;11.20;;
22468;SDS011;11401;50.792;4.352;2023-11-22T05:01:42;11.80;;;10.65;;
22468;SDS011;11401;50.792;4.352;2023-11-22T05:04:09;13.80;;;11.25;;
22468;SDS011;11401;50.792;4.352;2023-11-22T05:06:37;12.40;;;9.82;;
22468;SDS011;11401;50.792;4.352;2023-11-22T05:09:04;12.60;;;10.70;;
22468;SDS011;11401;50.792;4.352;2023-11-22T05:11:32;11.73;;;10.00;;
22468;SDS011;11401;50.792;4.352;2023-11-22T05:13:59;13.35;;;10.77;;
22468;SDS011;11401;50.792;4.352;2023-11-22T05:16:26;15.18;;;11.10;;
22468;SDS011;11401;50.792;4.352;2023-11-22T05:18:53;15.02;;;10.73;;
22468;SDS011;11401;50.792;4.352;2023-11-22T05:21:20;13.00;;;11.40;;
22468;SDS011;11401;50.792;4.352;2023-11-22T05:23:47;12.73;;;10.82;;
22468;SDS011;11401;50.792;4.352;2023-11-22T05:26:14;13.10;;;10.93;;
22468;SDS011;11401;50.792;4.352;2023-11-22T05:28:41;18.25;;;12.63;;
22468;SDS011;11401;50.792;4.352;2023-11-22T05:31:08;15.05;;;11.77;;
22468;SDS011;11401;50.792;4.352;2023-11-22T05:33:35;14.38;;;10.77;;
22468;SDS011;11401;50.792;4.352;2023-11-22T05:36:02;13.23;;;10.70;;
22468;SDS011;11401;50.792;4.352;2023-11-22T05:38:29;13.63;;;11.52;;
22468;SDS011;11401;50.792;4.352;2023-11-22T05:40:56;12.43;;;10.98;;
22468;SDS011;11401;50.792;4.352;2023-11-22T05:43:23;15.98;;;11.93;;
22468;SDS011;11401;50.792;4.352;2023-11-22T05:45:53;15.52;;;11.50;;
22468;SDS011;11401;50.792;4.352;2023-11-22T05:48:20;14.43;;;11.48;;
22468;SDS011;11401;50.792;4.352;2023-11-22T05:50:48;15.00;;;11.85;;
22468;SDS011;11401;50.792;4.352;2023-11-22T05:53:15;13.13;;;11.23;;
22468;SDS011;11401;50.792;4.352;2023-11-22T05:55:49;15.63;;;11.95;;
22468;SDS011;11401;50.792;4.352;2023-11-22T05:58:16;13.93;;;10.93;;
22468;SDS011;11401;50.792;4.352;2023-11-22T06:00:44;15.68;;;12.35;;
22468;SDS011;11401;50.792;4.352;2023-11-22T06:03:12;14.30;;;11.05;;
22468;SDS011;11401;50.792;4.352;2023-11-22T06:05:40;14.70;;;12.25;;
22468;SDS011;11401;50.792;4.352;2023-11-22T06:08:07;14.77;;;12.32;;
22468;SDS011;11401;50.792;4.352;2023-11-22T06:10:37;14.05;;;11.65;;
22468;SDS011;11401;50.792;4.352;2023-11-22T06:13:08;16.50;;;11.82;;
22468;SDS011;11401;50.792;4.352;2023-11-22T06:15:35;17.23;;;11.75;;
22468;SDS011;11401;50.792;4.352;2023-11-22T06:18:02;12.95;;;10.57;;
22468;SDS011;11401;50.792;4.352;2023-11-22T06:20:29;14.80;;;13.10;;
22468;SDS011;11401;50.792;4.352;2023-11-22T06:22:56;22.05;;;13.85;;
22468;SDS011;11401;50.792;4.352;2023-11-22T06:25:23;17.45;;;13.23;;
22468;SDS011;11401;50.792;4.352;2023-11-22T06:27:51;16.90;;;12.80;;
22468;SDS011;11401;50.792;4.352;2023-11-22T06:30:18;16.95;;;13.00;;
22468;SDS011;11401;50.792;4.352;2023-11-22T06:32:45;14.75;;;11.98;;
22468;SDS011;11401;50.792;4.352;2023-11-22T06:35:13;14.52;;;12.27;;
22468;SDS011;11401;50.792;4.352;2023-11-22T06:37:41;16.45;;;12.45;;
22468;SDS011;11401;50.792;4.352;2023-11-22T06:40:08;15.02;;;11.52;;
22468;SDS011;11401;50.792;4.352;2023-11-22T06:42:41;17.40;;;11.95;;
22468;SDS011;11401;50.792;4.352;2023-11-22T06:45:08;15.55;;;11.70;;
22468;SDS011;11401;50.792;4.352;2023-11-22T06:47:42;15.57;;;11.95;;
22468;SDS011;11401;50.792;4.352;2023-11-22T06:50:11;15.77;;;12.80;;
22468;SDS011;11401;50.792;4.352;2023-11-22T06:52:39;14.38;;;11.75;;
22468;SDS011;11401;50.792;4.352;2023-11-22T06:55:09;14.70;;;12.20;;
22468;SDS011;11401;50.792;4.352;2023-11-22T06:57:36;15.98;;;12.18;;
22468;SDS011;11401;50.792;4.352;2023-11-22T07:00:04;17.52;;;12.10;;
22468;SDS011;11401;50.792;4.352;2023-11-22T07:02:32;15.93;;;12.50;;
22468;SDS011;11401;50.792;4.352;2023-11-22T07:04:59;17.98;;;12.90;;
22468;SDS011;11401;50.792;4.352;2023-11-22T07:07:26;16.17;;;12.95;;
22468;SDS011;11401;50.792;4.352;2023-11-22T07:09:54;14.57;;;11.98;;
22468;SDS011;11401;50.792;4.352;2023-11-22T07:12:22;15.40;;;12.63;;
22468;SDS011;11401;50.792;4.352;2023-11-22T07:14:49;19.30;;;13.10;;
22468;SDS011;11401;50.792;4.352;2023-11-22T07:17:17;16.73;;;12.75;;
22468;SDS011;11401;50.792;4.352;2023-11-22T07:19:44;15.68;;;12.35;;
22468;SDS011;11401;50.792;4.352;2023-11-22T07:22:16;16.42;;;12.50;;
22468;SDS011;11401;50.792;4.352;2023-11-22T07:24:44;18.50;;;13.68;;
22468;SDS011;11401;50.792;4.352;2023-11-22T07:27:14;16.98;;;12.98;;
22468;SDS011;11401;50.792;4.352;2023-11-22T07:29:42;17.38;;;13.35;;
22468;SDS011;11401;50.792;4.352;2023-11-22T07:32:10;18.25;;;12.88;;
22468;SDS011;11401;50.792;4.352;2023-11-22T07:34:38;15.55;;;12.85;;
22468;SDS011;11401;50.792;4.352;2023-11-22T07:37:06;17.20;;;13.80;;
22468;SDS011;11401;50.792;4.352;2023-11-22T07:39:34;19.20;;;13.23;;
22468;SDS011;11401;50.792;4.352;2023-11-22T07:42:02;27.42;;;14.55;;
22468;SDS011;11401;50.792;4.352;2023-11-22T07:44:29;20.63;;;13.70;;
22468;SDS011;11401;50.792;4.352;2023-11-22T07:46:59;18.02;;;13.27;;
22468;SDS011;11401;50.792;4.352;2023-11-22T07:49:27;19.27;;;13.73;;
22468;SDS011;11401;50.792;4.352;2023-11-22T07:51:55;17.27;;;13.15;;
22468;SDS011;11401;50.792;4.352;2023-11-22T07:54:22;17.90;;;13.45;;
22468;SDS011;11401;50.792;4.352;2023-11-22T07:56:49;19.35;;;13.25;;
22468;SDS011;11401;50.792;4.352;2023-11-22T07:59:19;16.83;;;13.23;;
22468;SDS011;11401;50.792;4.352;2023-11-22T08:01:46;16.40;;;12.43;;
22468;SDS011;11401;50.792;4.352;2023-11-22T08:04:17;13.27;;;11.55;;
22468;SDS011;11401;50.792;4.352;2023-11-22T08:06:44;13.65;;;11.40;;
22468;SDS011;11401;50.792;4.352;2023-11-22T08:09:12;15.10;;;11.73;;
22468;SDS011;11401;50.792;4.352;2023-11-22T08:11:39;15.48;;;12.48;;
22468;SDS011;11401;50.792;4.352;2023-11-22T08:14:07;14.82;;;11.65;;
22468;SDS011;11401;50.792;4.352;2023-11-22T08:16:35;15.32;;;11.70;;
22468;SDS011;11401;50.792;4.352;2023-11-22T08:19:05;14.85;;;11.30;;
22468;SDS011;11401;50.792;4.352;2023-11-22T08:21:32;14.52;;;11.35;;
22468;SDS011;11401;50.792;4.352;2023-11-22T08:23:59;17.20;;;13.27;;
22468;SDS011;11401;50.792;4.352;2023-11-22T08:26:26;16.23;;;12.13;;
22468;SDS011;11401;50.792;4.352;2023-11-22T08:28:53;16.40;;;11.77;;
22468;SDS011;11401;50.792;4.352;2023-11-22T08:31:21;15.63;;;11.98;;
22468;SDS011;11401;50.792;4.352;2023-11-22T08:33:49;15.68;;;11.48;;
22468;SDS011;11401;50.792;4.352;2023-11-22T08:36:15;14.68;;;11.57;;
22468;SDS011;11401;50.792;4.352;2023-11-22T08:38:43;16.83;;;11.77;;
22468;SDS011;11401;50.792;4.352;2023-11-22T08:41:11;12.10;;;10.32;;
22468;SDS011;11401;50.792;4.352;2023-11-22T08:43:40;13.63;;;9.95;;
22468;SDS011;11401;50.792;4.352;2023-11-22T08:46:08;13.60;;;10.32;;
22468;SDS011;11401;50.792;4.352;2023-11-22T08:48:40;14.45;;;10.35;;
22468;SDS011;11401;50.792;4.352;2023-11-22T08:51:09;14.05;;;10.40;;
22468;SDS011;11401;50.792;4.352;2023-11-22T08:53:37;13.50;;;10.40;;
22468;SDS011;11401;50.792;4.352;2023-11-22T08:56:04;14.95;;;10.82;;
22468;SDS011;11401;50.792;4.352;2023-11-22T08:58:32;14.85;;;10.85;;
22468;SDS011;11401;50.792;4.352;2023-11-22T09:01:00;18.17;;;10.95;;
22468;SDS011;11401;50.792;4.352;2023-11-22T09:03:30;12.77;;;10.18;;
22468;SDS011;11401;50.792;4.352;2023-11-22T09:05:58;14.43;;;10.50;;
22468;SDS011;11401;50.792;4.352;2023-11-22T09:08:25;16.17;;;12.10;;
22468;SDS011;11401;50.792;4.352;2023-11-22T09:10:56;17.60;;;10.68;;
22468;SDS011;11401;50.792;4.352;2023-11-22T09:13:23;17.63;;;12.70;;
22468;SDS011;11401;50.792;4.352;2023-11-22T09:15:51;15.00;;;11.27;;
22468;SDS011;11401;50.792;4.352;2023-11-22T09:18:18;15.70;;;11.82;;
22468;SDS011;11401;50.792;4.352;2023-11-22T09:20:45;14.98;;;11.23;;
22468;SDS011;11401;50.792;4.352;2023-11-22T09:23:12;14.38;;;11.20;;
22468;SDS011;11401;50.792;4.352;2023-11-22T09:25:41;21.08;;;12.95;;
22468;SDS011;11401;50.792;4.352;2023-11-22T09:28:08;20.10;;;12.32;;
22468;SDS011;11401;50.792;4.352;2023-11-22T09:30:36;16.20;;;11.88;;
22468;SDS011;11401;50.792;4.352;2023-11-22T09:35:36;20.65;;;13.15;;
22468;SDS011;11401;50.792;4.352;2023-11-22T09:38:04;21.23;;;12.05;;
22468;SDS011;11401;50.792;4.352;2023-11-22T09:40:42;19.48;;;11.25;;
22468;SDS011;11401;50.792;4.352;2023-11-22T09:43:12;20.27;;;12.82;;
22468;SDS011;11401;50.792;4.352;2023-11-22T09:45:46;26.60;;;13.05;;
22468;SDS011;11401;50.792;4.352;2023-11-22T09:48:21;18.65;;;12.77;;
22468;SDS011;11401;50.792;4.352;2023-11-22T09:56:09;17.50;;;11.90;;
22468;SDS011;11401;50.792;4.352;2023-11-22T09:58:38;18.92;;;11.88;;
22468;SDS011;11401;50.792;4.352;2023-11-22T10:01:10;22.77;;;12.65;;
22468;SDS011;11401;50.792;4.352;2023-11-22T10:03:42;30.80;;;14.20;;
22468;SDS011;11401;50.792;4.352;2023-11-22T10:06:09;20.70;;;13.60;;
22468;SDS011;11401;50.792;4.352;2023-11-22T10:08:36;19.88;;;13.15;;
22468;SDS011;11401;50.792;4.352;2023-11-22T10:11:05;22.30;;;13.07;;
22468;SDS011;11401;50.792;4.352;2023-11-22T10:13:33;21.48;;;12.68;;
22468;SDS011;11401;50.792;4.352;2023-11-22T10:16:10;23.42;;;12.98;;
22468;SDS011;11401;50.792;4.352;2023-11-22T10:18:44;21.23;;;13.05;;
22468;SDS011;11401;50.792;4.352;2023-11-22T10:23:54;22.77;;;12.90;;
22468;SDS011;11401;50.792;4.352;2023-11-22T10:26:25;28.60;;;13.45;;
22468;SDS011;11401;50.792;4.352;2023-11-22T10:28:55;22.58;;;12.98;;
22468;SDS011;11401;50.792;4.352;2023-11-22T10:31:23;17.13;;;12.52;;
22468;SDS011;11401;50.792;4.352;2023-11-22T10:33:51;23.33;;;13.10;;
22468;SDS011;11401;50.792;4.352;2023-11-22T10:36:20;20.60;;;13.07;;
22468;SDS011;11401;50.792;4.352;2023-11-22T10:38:49;24.92;;;12.30;;
22468;SDS011;11401;50.792;4.352;2023-11-22T10:41:20;19.92;;;13.18;;
22468;SDS011;11401;50.792;4.352;2023-11-22T10:43:49;19.27;;;12.55;;
22468;SDS011;11401;50.792;4.352;2023-11-22T10:46:27;19.90;;;12.35;;
22468;SDS011;11401;50.792;4.352;2023-11-22T10:48:56;21.13;;;12.32;;
22468;SDS011;11401;50.792;4.352;2023-11-22T10:51:26;22.13;;;12.50;;
22468;SDS011;11401;50.792;4.352;2023-11-22T10:54:00;24.20;;;12.65;;
22468;SDS011;11401;50.792;4.352;2023-11-22T10:56:36;19.88;;;11.88;;
22468;SDS011;11401;50.792;4.352;2023-11-22T10:59:10;17.75;;;11.35;;
22468;SDS011;11401;50.792;4.352;2023-11-22T11:01:42;18.33;;;11.77;;
22468;SDS011;11401;50.792;4.352;2023-11-22T11:04:16;14.00;;;10.40;;
22468;SDS011;11401;50.792;4.352;2023-11-22T11:06:47;19.27;;;10.63;;
22468;SDS011;11401;50.792;4.352;2023-11-22T11:09:19;17.60;;;9.82;;
22468;SDS011;11401;50.792;4.352;2023-11-22T11:11:50;17.45;;;11.75;;
22468;SDS011;11401;50.792;4.352;2023-11-22T11:14:18;16.20;;;10.68;;
22468;SDS011;11401;50.792;4.352;2023-11-22T11:16:45;19.90;;;11.38;;
22468;SDS011;11401;50.792;4.352;2023-11-22T11:19:14;16.08;;;10.43;;
22468;SDS011;11401;50.792;4.352;2023-11-22T11:21:47;17.13;;;11.02;;
22468;SDS011;11401;50.792;4.352;2023-11-22T11:24:14;16.92;;;10.40;;
22468;SDS011;11401;50.792;4.352;2023-11-22T11:26:45;15.57;;;10.55;;
22468;SDS011;11401;50.792;4.352;2023-11-22T11:29:35;15.88;;;10.93;;
22468;SDS011;11401;50.792;4.352;2023-11-22T11:32:10;17.60;;;10.52;;
22468;SDS011;11401;50.792;4.352;2023-11-22T11:35:01;16.13;;;10.65;;
22468;SDS011;11401;50.792;4.352;2023-11-22T11:37:33;13.65;;;9.88;;
22468;SDS011;11401;50.792;4.352;2023-11-22T11:40:00;13.32;;;9.63;;
22468;SDS011;11401;50.792;4.352;2023-11-22T11:42:48;14.40;;;10.30;;
22468;SDS011;11401;50.792;4.352;2023-11-22T11:45:15;16.15;;;10.10;;
22468;SDS011;11401;50.792;4.352;2023-11-22T11:47:42;15.07;;;10.10;;
22468;SDS011;11401;50.792;4.352;2023-11-22T11:50:10;14.70;;;9.35;;
22468;SDS011;11401;50.792;4.352;2023-11-22T11:52:38;12.02;;;9.00;;
22468;SDS011;11401;50.792;4.352;2023-11-22T11:55:06;12.10;;;8.35;;
22468;SDS011;11401;50.792;4.352;2023-11-22T11:57:33;12.10;;;9.40;;
22468;SDS011;11401;50.792;4.352;2023-11-22T12:00:02;16.05;;;8.82;;
22468;SDS011;11401;50.792;4.352;2023-11-22T12:02:36;15.40;;;9.55;;
22468;SDS011;11401;50.792;4.352;2023-11-22T12:05:04;12.57;;;9.55;;
22468;SDS011;11401;50.792;4.352;2023-11-22T12:07:36;13.10;;;9.95;;
22468;SDS011;11401;50.792;4.352;2023-11-22T12:10:03;11.73;;;9.60;;
22468;SDS011;11401;50.792;4.352;2023-11-22T12:12:33;12.43;;;9.13;;
22468;SDS011;11401;50.792;4.352;2023-11-22T12:15:01;11.75;;;8.57;;
22468;SDS011;11401;50.792;4.352;2023-11-22T12:17:29;10.52;;;9.13;;
22468;SDS011;11401;50.792;4.352;2023-11-22T12:20:10;11.48;;;8.93;;
22468;SDS011;11401;50.792;4.352;2023-11-22T12:22:38;14.23;;;8.90;;
22468;SDS011;11401;50.792;4.352;2023-11-22T12:25:07;12.77;;;9.65;;
22468;SDS011;11401;50.792;4.352;2023-11-22T12:27:38;13.15;;;9.63;;
22468;SDS011;11401;50.792;4.352;2023-11-22T12:30:06;13.30;;;8.98;;
22468;SDS011;11401;50.792;4.352;2023-11-22T12:32:34;13.52;;;8.32;;
22468;SDS011;11401;50.792;4.352;2023-11-22T12:35:05;9.70;;;8.38;;
22468;SDS011;11401;50.792;4.352;2023-11-22T12:37:34;14.48;;;9.27;;
22468;SDS011;11401;50.792;4.352;2023-11-22T12:40:07;14.02;;;9.82;;
22468;SDS011;11401;50.792;4.352;2023-11-22T12:42:47;10.52;;;8.55;;
22468;SDS011;11401;50.792;4.352;2023-11-22T12:45:21;11.82;;;9.73;;
22468;SDS011;11401;50.792;4.352;2023-11-22T12:47:51;12.27;;;8.73;;
22468;SDS011;11401;50.792;4.352;2023-11-22T12:52:58;10.32;;;9.23;;
22468;SDS011;11401;50.792;4.352;2023-11-22T12:55:33;12.02;;;9.13;;
22468;SDS011;11401;50.792;4.352;2023-11-22T12:58:02;15.50;;;10.60;;
22468;SDS011;11401;50.792;4.352;2023-11-22T13:00:29;13.93;;;9.52;;
22468;SDS011;11401;50.792;4.352;2023-11-22T13:02:57;16.23;;;10.68;;
22468;SDS011;11401;50.792;4.352;2023-11-22T13:05:29;14.13;;;9.82;;
22468;SDS011;11401;50.792;4.352;2023-11-22T13:07:57;12.52;;;10.10;;
22468;SDS011;11401;50.792;4.352;2023-11-22T13:10:27;14.27;;;10.35;;
22468;SDS011;11401;50.792;4.352;2023-11-22T13:12:56;15.90;;;11.55;;
22468;SDS011;11401;50.792;4.352;2023-11-22T13:15:24;13.55;;;10.68;;
22468;SDS011;11401;50.792;4.352;2023-11-22T13:17:53;13.95;;;10.30;;
22468;SDS011;11401;50.792;4.352;2023-11-22T13:20:22;14.98;;;9.90;;
22468;SDS011;11401;50.792;4.352;2023-11-22T13:22:52;18.20;;;10.63;;
22468;SDS011;11401;50.792;4.352;2023-11-22T13:25:20;17.00;;;11.68;;
22468;SDS011;11401;50.792;4.352;2023-11-22T13:27:50;16.50;;;12.32;;
22468;SDS011;11401;50.792;4.352;2023-11-22T13:30:19;14.68;;;10.95;;
22468;SDS011;11401;50.792;4.352;2023-11-22T13:33:00;14.23;;;10.75;;
22468;SDS011;11401;50.792;4.352;2023-11-22T13:35:28;20.55;;;11.38;;
22468;SDS011;11401;50.792;4.352;2023-11-22T13:37:57;15.75;;;11.27;;
22468;SDS011;11401;50.792;4.352;2023-11-22T13:40:28;17.95;;;12.30;;
22468;SDS011;11401;50.792;4.352;2023-11-22T13:42:57;18.02;;;11.73;;
22468;SDS011;11401;50.792;4.352;2023-11-22T13:45:25;15.10;;;11.23;;
22468;SDS011;11401;50.792;4.352;2023-11-22T13:47:54;18.55;;;11.45;;
22468;SDS011;11401;50.792;4.352;2023-11-22T13:50:27;13.00;;;10.30;;
22468;SDS011;11401;50.792;4.352;2023-11-22T13:52:54;11.65;;;10.32;;
22468;SDS011;11401;50.792;4.352;2023-11-22T13:55:22;16.60;;;10.45;;
22468;SDS011;11401;50.792;4.352;2023-11-22T13:57:54;14.52;;;10.13;;
22468;SDS011;11401;50.792;4.352;2023-11-22T14:00:26;12.70;;;9.98;;
22468;SDS011;11401;50.792;4.352;2023-11-22T14:02:59;14.82;;;10.20;;
22468;SDS011;11401;50.792;4.352;2023-11-22T14:05:33;15.20;;;10.50;;
22468;SDS011;11401;50.792;4.352;2023-11-22T14:08:03;14.70;;;11.10;;
22468;SDS011;11401;50.792;4.352;2023-11-22T14:10:32;17.02;;;9.90;;
22468;SDS011;11401;50.792;4.352;2023-11-22T14:12:59;15.82;;;11.48;;
22468;SDS011;11401;50.792;4.352;2023-11-22T14:15:28;14.07;;;10.23;;
22468;SDS011;11401;50.792;4.352;2023-11-22T14:17:55;12.27;;;9.32;;
22468;SDS011;11401;50.792;4.352;2023-11-22T14:20:22;15.57;;;10.70;;
22468;SDS011;11401;50.792;4.352;2023-11-22T14:22:51;13.63;;;10.05;;
22468;SDS011;11401;50.792;4.352;2023-11-22T14:25:19;15.85;;;10.40;;
22468;SDS011;11401;50.792;4.352;2023-11-22T14:27:47;13.82;;;10.05;;
22468;SDS011;11401;50.792;4.352;2023-11-22T14:30:20;14.90;;;11.00;;
22468;SDS011;11401;50.792;4.352;2023-11-22T14:32:48;17.10;;;9.75;;
22468;SDS011;11401;50.792;4.352;2023-11-22T14:35:17;16.73;;;10.23;;
22468;SDS011;11401;50.792;4.352;2023-11-22T14:37:45;14.18;;;10.88;;
22468;SDS011;11401;50.792;4.352;2023-11-22T14:40:12;16.23;;;10.95;;
22468;SDS011;11401;50.792;4.352;2023-11-22T14:42:43;12.93;;;9.82;;
22468;SDS011;11401;50.792;4.352;2023-11-22T14:45:13;14.65;;;10.98;;